Avoca, Arkansas
Current Conditions -  °F | °C
As of 3:15 AM on Thursday 27 Nov 2014 (Local Time) from KROG Reporting Station
Scattered Clouds Scattered Clouds  
Wind Chill: 19°   Ceiling: Unl
Heat Index: 28°   Visibility: 10mi
Dew Point: 23°   Wind: 10mph
Humidity: 80%   Direction: 360°N
Pressure: 30.42"   Gusts: NA
Location:  36.4°N, 94.07°W
Report Text: KROG 270915Z AUTO 36009KT 10SM SCT020 M02/M05 A3042 RMK AO2 TSNO
Loading
Personal Weather Stations






























Interactive Weather Map New forecast layout! Learn more

10-Day Weather Forecast

Advertisements
Track Severe Weather on mobile